Heer, Netherlands
Current Conditions -  °F | °C
As of 11:25 PM on Tuesday 25 Nov 2014 (Local Time) from EHBK Reporting Station
Clear Clear  
Wind Chill: 32°   Ceiling: Unl
Heat Index: 39°   Visibility: 6mi
Dew Point: 36°   Wind: 12mph
Humidity: 87%   Direction: 80°E
Pressure: 30.06"   Gusts: NA
Location:  50.84°N, 5.73°E
Report Text: EHBK 252225Z AUTO 08010KT 9999 NSC 04/02 Q1018
Loading
Personal Weather Stations






























Interactive Weather Map New forecast layout! Learn more

10-Day Weather Forecast

Advertisements
Track Severe Weather on mobile